Time;durP1;ratioP1;P1;durP2;ratioP2;P2;SDS_P1;SDS_P2;PMS_P1;PMS_P2;Temp;Humidity;BMP_temperature;BMP_pressure;BME280_temperature;BME280_humidity;BME280_pressure;Samples;Min_cycle;Max_cycle;Signal;HPM_P1;HPM_P2
2022/08/25 00:01:19;;;;;;;11.82;6.80;;;21.10;99.90;;;;;;5120014;27;20046;-58
2022/08/25 00:03:46;;;;;;;8.65;6.28;;;21.10;99.90;;;;;;5118511;27;20131;-63
2022/08/25 00:06:12;;;;;;;8.65;6.15;;;21.10;99.90;;;;;;5116562;27;20051;-59
2022/08/25 00:08:40;;;;;;;6.88;5.72;;;21.10;99.90;;;;;;5099813;27;20325;-58
2022/08/25 00:11:17;;;;;;;7.55;5.57;;;21.10;99.90;;;;;;5099709;27;20149;-59
2022/08/25 00:13:47;;;;;;;8.45;5.78;;;21.10;99.90;;;;;;5086285;27;20133;-59
2022/08/25 00:16:15;;;;;;;7.47;5.60;;;21.00;99.90;;;;;;5085962;27;20676;-64
2022/08/25 00:18:44;;;;;;;7.47;5.57;;;21.00;99.90;;;;;;5130054;27;20047;-59
2022/08/25 00:21:12;;;;;;;7.70;5.75;;;21.00;99.90;;;;;;5060238;27;20049;-59
2022/08/25 00:23:38;;;;;;;9.60;6.25;;;21.00;99.90;;;;;;5099735;27;20493;-57
2022/08/25 00:26:05;;;;;;;7.15;5.25;;;21.00;99.90;;;;;;5098162;27;20574;-58
2022/08/25 00:28:31;;;;;;;7.25;5.60;;;20.90;99.90;;;;;;5132418;27;20047;-57
2022/08/25 00:31:00;;;;;;;7.40;5.65;;;20.90;99.90;;;;;;5102520;27;20051;-57
2022/08/25 00:33:27;;;;;;;7.05;4.90;;;20.90;99.90;;;;;;5083786;27;20074;-59
2022/08/25 00:35:55;;;;;;;9.85;5.40;;;20.90;99.90;;;;;;5115856;27;20043;-42
2022/08/25 00:38:21;;;;;;;6.43;5.05;;;20.80;99.90;;;;;;5107438;27;20062;-59
2022/08/25 00:41:04;;;;;;;7.10;4.97;;;20.80;99.90;;;;;;5097933;27;20050;-58
2022/08/25 00:43:39;;;;;;;11.93;5.50;;;20.80;99.90;;;;;;5097082;27;20604;-60
2022/08/25 00:46:10;;;;;;;5.40;4.68;;;20.80;99.90;;;;;;5114796;27;20549;-58
2022/08/25 00:48:39;;;;;;;6.93;5.00;;;20.80;99.90;;;;;;5118007;27;20048;-58
2022/08/25 00:51:08;;;;;;;5.32;4.55;;;20.80;99.90;;;;;;5084865;27;20047;-58
2022/08/25 00:53:35;;;;;;;10.00;4.68;;;20.80;99.90;;;;;;5099344;27;20044;-58
2022/08/25 00:56:01;;;;;;;10.02;4.43;;;20.70;99.90;;;;;;5096618;27;20406;-58
2022/08/25 00:58:30;;;;;;;8.98;4.72;;;20.70;99.90;;;;;;5116736;27;20043;-58
2022/08/25 01:00:57;;;;;;;5.95;4.32;;;20.70;99.90;;;;;;5096722;27;20036;-59
2022/08/25 01:03:26;;;;;;;6.55;4.47;;;20.70;99.90;;;;;;5115533;27;20046;-58
2022/08/25 01:05:54;;;;;;;5.78;4.18;;;20.70;99.90;;;;;;5078622;27;20046;-58
2022/08/25 01:08:26;;;;;;;5.75;4.10;;;20.70;99.90;;;;;;5113608;27;20475;-58
2022/08/25 01:10:53;;;;;;;7.30;3.90;;;20.70;99.90;;;;;;5119369;27;20138;-59
2022/08/25 01:13:28;;;;;;;7.13;4.05;;;20.70;99.90;;;;;;5133969;27;20776;-58
2022/08/25 01:15:55;;;;;;;7.22;3.80;;;20.70;99.90;;;;;;5098258;27;20521;-44
2022/08/25 01:18:22;;;;;;;7.47;4.38;;;20.70;99.90;;;;;;5117855;27;20273;-41
2022/08/25 01:20:50;;;;;;;5.82;4.00;;;20.60;99.90;;;;;;5117046;28;20561;-42
2022/08/25 01:23:17;;;;;;;8.50;4.25;;;20.60;99.90;;;;;;5121282;27;20055;-41
2022/08/25 01:26:03;;;;;;;10.63;4.22;;;20.50;99.90;;;;;;5099332;28;20050;-40
2022/08/25 01:28:29;;;;;;;6.65;3.92;;;20.60;99.90;;;;;;5064476;28;20127;-58
2022/08/25 01:30:55;;;;;;;7.22;3.95;;;20.50;99.90;;;;;;5117754;27;20486;-61
2022/08/25 01:33:22;;;;;;;5.28;3.50;;;20.40;99.90;;;;;;5101784;27;20506;-40
2022/08/25 01:35:48;;;;;;;6.10;4.18;;;20.40;99.90;;;;;;5098117;27;20447;-60
2022/08/25 01:38:15;;;;;;;5.88;4.47;;;20.40;99.90;;;;;;5098672;28;20090;-44
2022/08/25 01:40:41;;;;;;;5.30;3.88;;;20.40;99.90;;;;;;5110182;27;20046;-41
2022/08/25 01:43:14;;;;;;;8.38;4.38;;;20.30;99.90;;;;;;5098164;28;20044;-44
2022/08/25 01:45:43;;;;;;;8.93;3.88;;;20.30;99.90;;;;;;5082280;28;20043;-40
2022/08/25 01:48:10;;;;;;;7.43;3.83;;;20.40;99.90;;;;;;5096446;27;20437;-58
2022/08/25 01:50:38;;;;;;;8.57;3.40;;;20.40;99.90;;;;;;5097583;28;20058;-58
2022/08/25 01:53:04;;;;;;;6.18;4.00;;;20.30;99.90;;;;;;5099651;27;20633;-61
2022/08/25 01:55:50;;;;;;;6.30;3.38;;;20.30;99.90;;;;;;5119412;27;20622;-61
2022/08/25 01:58:34;;;;;;;6.68;3.85;;;20.30;99.90;;;;;;5104805;27;20370;-58
2022/08/25 02:01:03;;;;;;;7.22;3.72;;;20.30;99.90;;;;;;5094810;27;20046;-58
2022/08/25 02:03:29;;;;;;;6.38;3.80;;;20.20;99.90;;;;;;5084583;27;20419;-57
2022/08/25 02:05:58;;;;;;;8.25;3.70;;;20.30;99.90;;;;;;5100089;27;20103;-58
2022/08/25 02:08:25;;;;;;;5.68;3.28;;;20.20;99.90;;;;;;5101499;27;20106;-58
2022/08/25 02:10:52;;;;;;;6.47;3.42;;;20.10;99.90;;;;;;5067702;27;20053;-58
2022/08/25 02:13:19;;;;;;;6.15;3.33;;;20.10;99.90;;;;;;5118593;27;20322;-41
2022/08/25 02:15:49;;;;;;;6.82;3.60;;;20.10;99.90;;;;;;5107227;27;20055;-43
2022/08/25 02:18:16;;;;;;;6.72;3.90;;;20.00;99.90;;;;;;5131530;27;20069;-41
2022/08/25 02:20:43;;;;;;;5.75;3.30;;;20.00;99.90;;;;;;5136346;27;20050;-41
2022/08/25 02:23:09;;;;;;;8.52;4.10;;;20.00;99.90;;;;;;5117095;27;20481;-57
2022/08/25 02:25:38;;;;;;;5.28;3.45;;;20.00;99.90;;;;;;5120300;27;20048;-41
2022/08/25 02:28:05;;;;;;;8.25;3.58;;;20.00;99.90;;;;;;5081907;27;20541;-42
2022/08/25 02:30:31;;;;;;;6.25;3.30;;;20.00;99.90;;;;;;5120423;27;20074;-44
2022/08/25 02:32:57;;;;;;;5.28;3.65;;;20.00;99.90;;;;;;5113437;27;20059;-40
2022/08/25 02:35:23;;;;;;;6.15;3.50;;;20.00;99.90;;;;;;5120001;27;20039;-42
2022/08/25 02:37:51;;;;;;;7.18;3.67;;;20.00;99.90;;;;;;5120172;27;20497;-42
2022/08/25 02:40:20;;;;;;;4.90;3.60;;;20.00;99.90;;;;;;5102381;27;20432;-45
2022/08/25 02:42:47;;;;;;;7.82;3.47;;;20.00;99.90;;;;;;5097750;27;20051;-44
2022/08/25 02:45:13;;;;;;;5.93;3.28;;;20.00;99.90;;;;;;5100403;27;20139;-42
2022/08/25 02:47:40;;;;;;;5.65;3.83;;;20.00;99.90;;;;;;5097909;27;20046;-42
2022/08/25 02:50:08;;;;;;;6.40;3.70;;;20.00;99.90;;;;;;5099030;27;20050;-58
2022/08/25 02:52:34;;;;;;;4.95;3.20;;;20.00;99.90;;;;;;5115213;27;20043;-58
2022/08/25 02:55:06;;;;;;;6.35;3.20;;;20.00;99.90;;;;;;5101821;27;20294;-44
2022/08/25 02:57:32;;;;;;;5.35;3.78;;;19.90;99.90;;;;;;5087196;27;20054;-59
2022/08/25 02:59:59;;;;;;;4.25;3.10;;;19.90;99.90;;;;;;5111052;27;20055;-58
2022/08/25 03:02:26;;;;;;;9.57;3.20;;;19.90;99.90;;;;;;5110482;27;20035;-59
2022/08/25 03:04:53;;;;;;;6.00;3.10;;;20.00;99.90;;;;;;5080549;27;20054;-43
2022/08/25 03:07:20;;;;;;;5.45;3.47;;;20.00;99.90;;;;;;5111255;27;20054;-41
2022/08/25 03:09:47;;;;;;;6.95;3.42;;;20.00;99.90;;;;;;5098211;27;20110;-41
2022/08/25 03:12:13;;;;;;;4.95;3.38;;;19.90;99.90;;;;;;5080787;27;20481;-43
2022/08/25 03:14:39;;;;;;;9.55;3.83;;;19.90;99.90;;;;;;5096565;27;20078;-42
2022/08/25 03:17:06;;;;;;;8.25;3.78;;;19.90;99.90;;;;;;5117988;27;20497;-60
2022/08/25 03:19:33;;;;;;;7.07;3.53;;;19.80;99.90;;;;;;5095991;27;20051;-58
2022/08/25 03:22:00;;;;;;;5.18;3.25;;;19.80;99.90;;;;;;5099859;27;20035;-62
2022/08/25 03:24:26;;;;;;;8.10;3.63;;;19.80;99.90;;;;;;5119585;27;20051;-58
2022/08/25 03:26:54;;;;;;;6.10;3.17;;;19.80;99.90;;;;;;5127382;27;20051;-58
2022/08/25 03:29:31;;;;;;;7.07;3.47;;;19.70;99.90;;;;;;5092846;27;20043;-58
2022/08/25 03:31:58;;;;;;;4.75;2.90;;;19.70;99.90;;;;;;5110487;27;20050;-58
2022/08/25 03:34:26;;;;;;;6.05;3.72;;;19.70;99.90;;;;;;5101179;27;20492;-59
2022/08/25 03:36:54;;;;;;;8.20;3.25;;;19.70;99.90;;;;;;5094364;27;20046;-59
2022/08/25 03:39:22;;;;;;;6.32;3.40;;;19.70;99.90;;;;;;5117492;27;20054;-58
2022/08/25 03:41:48;;;;;;;5.45;3.38;;;19.70;99.90;;;;;;5094413;27;20484;-58
2022/08/25 03:44:16;;;;;;;9.38;3.20;;;19.70;99.90;;;;;;5119294;27;20049;-59
2022/08/25 03:46:45;;;;;;;6.10;3.20;;;19.70;99.90;;;;;;5097205;27;20398;-58
2022/08/25 03:49:16;;;;;;;5.38;3.38;;;19.70;99.90;;;;;;5109686;27;22271;-58
2022/08/25 03:51:48;;;;;;;7.65;3.35;;;19.70;99.90;;;;;;5118661;27;20039;-57
2022/08/25 03:54:17;;;;;;;6.68;3.65;;;19.60;99.90;;;;;;5093070;27;20042;-59
2022/08/25 03:56:44;;;;;;;5.18;3.30;;;19.50;99.90;;;;;;5099723;27;22467;-57
2022/08/25 03:59:13;;;;;;;8.52;3.50;;;19.50;99.90;;;;;;5063370;27;20157;-58
2022/08/25 04:01:41;;;;;;;8.20;3.95;;;19.50;99.90;;;;;;5100453;27;20062;-58
2022/08/25 04:04:09;;;;;;;5.47;3.53;;;19.50;99.90;;;;;;5099034;27;20135;-59
2022/08/25 04:06:37;;;;;;;8.52;3.35;;;19.40;99.90;;;;;;5099371;27;20654;-58
2022/08/25 04:09:03;;;;;;;7.38;3.63;;;19.40;99.90;;;;;;5098629;27;20050;-58
2022/08/25 04:11:30;;;;;;;4.85;3.33;;;19.40;99.90;;;;;;5115065;27;20050;-58
2022/08/25 04:13:57;;;;;;;8.68;4.18;;;19.30;99.90;;;;;;5079760;28;20439;-58
2022/08/25 04:16:29;;;;;;;4.97;3.50;;;19.30;99.90;;;;;;5116840;27;20194;-59
2022/08/25 04:18:56;;;;;;;7.18;3.22;;;19.30;99.90;;;;;;5112241;27;20051;-62
2022/08/25 04:21:23;;;;;;;6.53;3.75;;;19.30;99.90;;;;;;5117485;27;20039;-59
2022/08/25 04:23:50;;;;;;;7.55;3.70;;;19.30;99.90;;;;;;5116960;27;20482;-58
2022/08/25 04:26:23;;;;;;;6.00;4.18;;;19.20;99.90;;;;;;5098044;27;20054;-59
2022/08/25 04:28:50;;;;;;;6.43;3.88;;;19.20;99.90;;;;;;5077229;27;20080;-59
2022/08/25 04:31:17;;;;;;;7.18;3.63;;;19.10;99.90;;;;;;5097310;27;20047;-42
2022/08/25 04:33:46;;;;;;;5.38;3.88;;;19.10;99.90;;;;;;5097450;27;20055;-42
2022/08/25 04:36:15;;;;;;;8.18;4.00;;;19.10;99.90;;;;;;5061658;27;20470;-60
2022/08/25 04:38:42;;;;;;;5.82;3.63;;;19.00;99.90;;;;;;5068098;28;20043;-58
2022/08/25 04:41:10;;;;;;;6.82;3.60;;;19.10;99.90;;;;;;5110948;27;20051;-59
2022/08/25 04:43:38;;;;;;;6.00;3.75;;;19.00;99.90;;;;;;5080288;27;20082;-58
2022/08/25 04:46:14;;;;;;;7.10;3.80;;;19.00;99.90;;;;;;5111883;27;20120;-58
2022/08/25 04:48:41;;;;;;;6.97;3.92;;;19.10;99.90;;;;;;5093913;27;20481;-58
2022/08/25 04:51:14;;;;;;;7.63;3.55;;;19.00;99.90;;;;;;5096437;27;20054;-58
2022/08/25 04:53:41;;;;;;;6.70;3.42;;;19.10;99.90;;;;;;5080613;27;20049;-57
2022/08/25 04:56:10;;;;;;;6.18;3.80;;;19.00;99.90;;;;;;5096724;27;20051;-41
2022/08/25 04:58:36;;;;;;;8.15;3.85;;;19.10;99.90;;;;;;5112863;27;20054;-41
2022/08/25 05:01:04;;;;;;;6.50;3.90;;;19.10;99.90;;;;;;5074982;27;20035;-42
2022/08/25 05:03:31;;;;;;;7.10;3.60;;;19.10;99.90;;;;;;5098908;27;20663;-41
2022/08/25 05:05:57;;;;;;;6.63;3.50;;;19.10;99.90;;;;;;5109896;27;20498;-41
2022/08/25 05:08:23;;;;;;;7.32;4.35;;;19.20;99.90;;;;;;5112891;27;20047;-40
2022/08/25 05:10:49;;;;;;;6.82;3.85;;;19.20;99.90;;;;;;5114715;27;20046;-57
2022/08/25 05:13:15;;;;;;;6.50;4.10;;;19.20;99.90;;;;;;5074318;28;20035;-58
2022/08/25 05:15:50;;;;;;;6.35;4.18;;;19.20;99.90;;;;;;5113439;27;20101;-58
2022/08/25 05:18:18;;;;;;;7.25;4.20;;;19.30;99.90;;;;;;5111406;27;20529;-54
2022/08/25 05:20:44;;;;;;;7.97;4.20;;;19.30;99.90;;;;;;5109812;27;20544;-54
2022/08/25 05:23:11;;;;;;;7.00;4.15;;;19.60;99.90;;;;;;5113235;27;20067;-52
2022/08/25 05:25:37;;;;;;;6.68;4.05;;;19.70;99.90;;;;;;5098038;28;20138;-54
2022/08/25 05:28:04;;;;;;;8.55;3.78;;;19.80;99.90;;;;;;5097022;27;20040;-52
2022/08/25 05:30:30;;;;;;;6.05;4.10;;;19.90;99.90;;;;;;5116727;27;20104;-54
2022/08/25 05:32:56;;;;;;;6.75;4.20;;;20.00;99.90;;;;;;5102941;27;20617;-52
2022/08/25 05:35:22;;;;;;;6.15;3.72;;;20.00;99.90;;;;;;5100693;27;20142;-54
2022/08/25 05:37:48;;;;;;;8.35;3.80;;;20.00;99.90;;;;;;5059148;27;20672;-51
2022/08/25 05:40:17;;;;;;;7.65;4.32;;;20.10;99.90;;;;;;5119339;27;20476;-53
2022/08/25 05:42:43;;;;;;;5.95;3.80;;;20.10;99.90;;;;;;5118561;27;20502;-50
2022/08/25 05:45:13;;;;;;;6.85;3.83;;;20.10;99.90;;;;;;5083005;27;20063;-51
2022/08/25 05:47:39;;;;;;;6.45;4.10;;;20.20;99.90;;;;;;5114975;27;20501;-49
2022/08/25 05:50:07;;;;;;;6.35;3.70;;;20.30;99.90;;;;;;5102190;27;20054;-53
2022/08/25 05:52:34;;;;;;;87.72;78.82;;;20.50;99.90;;;;;;5084585;27;20043;-54
2022/08/25 05:55:00;;;;;;;16.45;11.13;;;20.70;99.90;;;;;;5118644;27;20045;-53
2022/08/25 05:57:26;;;;;;;6.88;4.95;;;20.90;99.90;;;;;;5113698;27;20039;-53
2022/08/25 05:59:52;;;;;;;13.90;9.40;;;21.10;99.90;;;;;;5095838;27;20527;-44
2022/08/25 06:05:03;;;;;;;10.20;8.07;;;21.50;99.90;;;;;;5099453;27;20247;-40
2022/08/25 06:07:29;;;;;;;14.63;12.57;;;21.60;99.90;;;;;;5079166;27;20201;-44
2022/08/25 06:09:55;;;;;;;12.23;4.80;;;21.80;99.90;;;;;;5117020;27;20127;-40
2022/08/25 06:12:21;;;;;;;7.30;5.57;;;21.90;99.90;;;;;;5120197;27;20039;-41
2022/08/25 06:14:48;;;;;;;7.22;4.97;;;22.00;99.90;;;;;;5118211;27;20054;-54
2022/08/25 06:17:16;;;;;;;14.13;11.50;;;22.10;99.90;;;;;;5101884;27;20130;-41
2022/08/25 06:19:43;;;;;;;10.20;8.98;;;22.30;99.90;;;;;;5099686;27;20107;-40
2022/08/25 06:22:09;;;;;;;8.95;5.43;;;22.50;99.90;;;;;;5096474;27;20045;-42
2022/08/25 06:24:35;;;;;;;10.38;8.30;;;22.60;99.90;;;;;;5098501;27;20046;-40
2022/08/25 06:27:01;;;;;;;7.28;4.85;;;22.70;99.90;;;;;;5094532;27;20306;-41
2022/08/25 06:29:28;;;;;;;6.45;3.83;;;22.80;99.90;;;;;;5091413;27;20156;-40
2022/08/25 06:31:54;;;;;;;6.60;4.40;;;22.80;99.90;;;;;;5094297;27;20047;-40
2022/08/25 06:34:20;;;;;;;10.05;8.20;;;22.80;99.90;;;;;;5078878;27;20050;-41
2022/08/25 06:36:46;;;;;;;5.65;4.13;;;23.00;99.90;;;;;;5111351;27;20310;-41
2022/08/25 06:39:12;;;;;;;11.18;9.55;;;23.10;99.90;;;;;;5077754;27;20043;-55
2022/08/25 06:41:38;;;;;;;12.45;10.93;;;23.20;99.90;;;;;;5094781;27;20055;-54
2022/08/25 06:44:05;;;;;;;11.13;7.22;;;23.40;99.90;;;;;;5099721;27;20092;-53
2022/08/25 06:46:31;;;;;;;12.80;4.28;;;23.50;99.90;;;;;;5095623;27;20050;-49
2022/08/25 06:48:57;;;;;;;8.68;3.15;;;23.60;99.90;;;;;;5114513;27;20039;-49
2022/08/25 06:51:25;;;;;;;5.53;3.28;;;23.70;99.90;;;;;;5099446;27;20043;-43
2022/08/25 06:53:51;;;;;;;8.63;4.00;;;23.80;99.90;;;;;;5082345;27;20050;-47
2022/08/25 06:56:20;;;;;;;6.65;3.63;;;23.80;99.90;;;;;;5094901;27;20383;-53
2022/08/25 06:58:47;;;;;;;7.30;3.58;;;23.90;99.90;;;;;;5096256;27;20060;-59
2022/08/25 07:01:22;;;;;;;18.60;11.82;;;24.00;99.90;;;;;;5114256;27;20129;-58
2022/08/25 07:03:49;;;;;;;29.05;26.05;;;24.20;99.90;;;;;;5115459;27;20047;-58
2022/08/25 07:06:19;;;;;;;14.68;7.20;;;24.30;99.90;;;;;;5096967;27;20081;-58
2022/08/25 07:08:46;;;;;;;6.68;4.50;;;24.50;99.90;;;;;;5099470;27;20122;-56
2022/08/25 07:11:14;;;;;;;5.63;4.28;;;24.80;99.90;;;;;;5115829;27;20285;-57
2022/08/25 07:13:40;;;;;;;9.52;5.38;;;25.10;99.90;;;;;;5081202;27;20061;-58
2022/08/25 07:16:07;;;;;;;10.18;7.22;;;25.30;99.90;;;;;;5115070;27;20461;-55
2022/08/25 07:18:34;;;;;;;7.25;3.80;;;25.60;99.90;;;;;;5099784;27;20454;-56
2022/08/25 07:21:00;;;;;;;8.45;6.03;;;26.00;99.90;;;;;;5116791;27;20546;-56
2022/08/25 07:23:27;;;;;;;11.85;6.13;;;26.30;99.90;;;;;;5096742;27;20747;-58
2022/08/25 07:25:54;;;;;;;7.22;3.80;;;26.60;99.90;;;;;;5098295;27;20065;-54
2022/08/25 07:28:21;;;;;;;6.10;3.63;;;26.60;99.90;;;;;;5077091;27;20088;-53
2022/08/25 07:30:49;;;;;;;6.68;3.38;;;26.90;99.90;;;;;;5113770;27;20510;-56
2022/08/25 07:33:15;;;;;;;5.97;3.75;;;27.20;99.90;;;;;;5122694;27;20093;-56
2022/08/25 07:35:41;;;;;;;8.82;3.72;;;27.40;99.50;;;;;;5078722;27;20039;-55
2022/08/25 07:38:08;;;;;;;5.97;3.78;;;27.80;99.00;;;;;;5114764;27;20517;-56
2022/08/25 07:40:36;;;;;;;6.72;3.92;;;28.00;97.80;;;;;;5092364;27;20047;-55
2022/08/25 07:43:07;;;;;;;6.85;3.85;;;27.90;97.80;;;;;;5098014;27;20051;-56
2022/08/25 07:45:36;;;;;;;5.82;3.15;;;28.10;96.60;;;;;;5112648;27;20053;-56
2022/08/25 07:48:06;;;;;;;7.75;3.72;;;28.20;95.80;;;;;;5115214;27;20126;-56
2022/08/25 07:50:34;;;;;;;6.68;3.72;;;28.40;95.40;;;;;;5086307;27;20070;-44
2022/08/25 07:53:00;;;;;;;9.15;3.53;;;28.30;95.30;;;;;;5117225;27;20043;-44
2022/08/25 07:55:29;;;;;;;6.65;3.55;;;28.40;95.10;;;;;;5095455;27;20789;-45
2022/08/25 07:57:56;;;;;;;7.03;3.55;;;28.70;95.20;;;;;;5097630;27;20058;-47
2022/08/25 08:00:26;;;;;;;5.82;3.60;;;28.90;94.50;;;;;;5127876;27;20541;-46
2022/08/25 08:02:52;;;;;;;7.10;3.60;;;29.30;94.00;;;;;;5097640;27;20063;-50
2022/08/25 08:05:18;;;;;;;6.93;4.25;;;29.50;93.00;;;;;;5093924;27;20046;-50
2022/08/25 08:07:45;;;;;;;7.85;5.43;;;29.70;91.90;;;;;;5094188;27;20119;-44
2022/08/25 08:10:13;;;;;;;6.85;3.80;;;30.00;91.30;;;;;;5079218;27;20064;-44
2022/08/25 08:12:40;;;;;;;9.07;5.85;;;30.20;90.40;;;;;;5076527;27;20043;-44
2022/08/25 08:15:07;;;;;;;6.32;3.40;;;30.10;88.80;;;;;;5080474;27;20134;-45
2022/08/25 08:17:33;;;;;;;20.02;18.08;;;30.30;88.10;;;;;;5078618;27;20532;-45
2022/08/25 08:20:00;;;;;;;6.68;3.50;;;30.20;88.00;;;;;;5110050;27;20704;-46
2022/08/25 08:22:28;;;;;;;7.20;3.22;;;30.60;85.90;;;;;;5114397;27;20042;-45
2022/08/25 08:24:54;;;;;;;9.52;3.75;;;30.50;83.60;;;;;;5093138;27;20051;-59
2022/08/25 08:27:20;;;;;;;8.60;4.80;;;30.90;84.00;;;;;;5115559;27;20085;-61
2022/08/25 08:29:46;;;;;;;5.78;3.22;;;31.10;81.90;;;;;;5093539;27;20043;-59
2022/08/25 08:32:13;;;;;;;5.22;3.10;;;31.40;82.30;;;;;;5086517;27;20071;-58
2022/08/25 08:34:40;;;;;;;6.30;3.17;;;31.70;81.20;;;;;;5080029;28;20074;-57
2022/08/25 08:37:07;;;;;;;7.35;3.70;;;31.70;79.00;;;;;;5071638;28;20051;-58
2022/08/25 08:39:35;;;;;;;5.32;3.20;;;31.60;78.20;;;;;;5096140;27;20079;-58
2022/08/25 08:42:21;;;;;;;8.60;3.85;;;31.70;76.30;;;;;;5089592;27;20041;-57
2022/08/25 08:45:10;;;;;;;5.72;3.50;;;31.90;74.90;;;;;;5106846;27;20139;-58
2022/08/25 08:48:05;;;;;;;9.15;3.00;;;31.90;72.50;;;;;;5090781;27;20043;-58
2022/08/25 08:51:33;;;;;;;9.23;7.60;;;32.20;72.30;;;;;;5092250;27;20496;-58
2022/08/25 08:54:12;;;;;;;5.30;3.67;;;32.80;72.20;;;;;;5044016;28;20287;-58
2022/08/25 08:56:42;;;;;;;5.20;2.95;;;32.90;70.30;;;;;;5071022;28;20043;-48
2022/08/25 08:59:42;;;;;;;5.65;3.10;;;32.80;67.60;;;;;;5068883;28;20194;-48
2022/08/25 09:02:38;;;;;;;4.75;3.00;;;32.60;65.80;;;;;;5090267;27;20489;-49
2022/08/25 09:05:13;;;;;;;5.75;3.20;;;33.00;66.20;;;;;;5088314;27;20047;-47
2022/08/25 09:07:47;;;;;;;6.43;2.83;;;33.20;65.70;;;;;;5062597;28;20053;-47
2022/08/25 09:10:16;;;;;;;14.48;10.25;;;33.50;63.10;;;;;;5092955;28;20039;-48
2022/08/25 09:12:50;;;;;;;6.10;3.25;;;33.00;62.90;;;;;;5087554;28;20125;-47
2022/08/25 09:18:30;;;;;;;4.47;2.45;;;33.60;61.50;;;;;;5105641;27;20444;-49
2022/08/25 09:21:44;;;;;;;5.88;2.53;;;33.60;59.20;;;;;;5088593;28;20573;-48
2022/08/25 09:24:33;;;;;;;9.82;4.88;;;33.60;58.10;;;;;;5051008;28;20085;-49
2022/08/25 09:27:20;;;;;;;3.42;2.78;;;33.80;58.80;;;;;;5072066;28;20059;-48
2022/08/25 09:29:53;;;;;;;10.80;9.40;;;34.00;58.20;;;;;;5091192;28;20051;-45
2022/08/25 09:32:20;;;;;;;8.52;3.03;;;34.20;56.50;;;;;;5070335;28;20159;-46
2022/08/25 09:34:49;;;;;;;9.27;5.13;;;34.30;54.90;;;;;;5076195;28;20432;-47
2022/08/25 09:37:15;;;;;;;9.55;6.43;;;34.40;55.00;;;;;;5040455;28;20051;-56
2022/08/25 09:39:41;;;;;;;3.60;2.40;;;34.60;53.40;;;;;;5085851;28;20040;-46
2022/08/25 09:42:08;;;;;;;7.30;2.58;;;34.60;53.10;;;;;;5067635;28;20125;-46
2022/08/25 09:44:37;;;;;;;8.45;3.42;;;34.90;53.10;;;;;;5103617;27;20045;-47
2022/08/25 09:47:22;;;;;;;8.90;4.85;;;34.90;51.40;;;;;;5073236;28;20553;-46
2022/08/25 09:50:00;;;;;;;12.52;10.75;;;34.50;51.30;;;;;;5109221;27;20166;-46
2022/08/25 09:52:32;;;;;;;9.13;6.43;;;34.90;50.40;;;;;;5073191;28;20048;-45
2022/08/25 09:55:04;;;;;;;5.82;2.80;;;35.00;49.20;;;;;;5089675;28;20503;-48
2022/08/25 09:57:35;;;;;;;5.40;3.03;;;35.10;48.80;;;;;;5087444;28;20536;-49
2022/08/25 10:00:24;;;;;;;4.75;2.40;;;35.00;50.50;;;;;;5073546;28;20540;-50
2022/08/25 10:03:06;;;;;;;5.82;3.63;;;35.40;50.00;;;;;;5070241;28;20053;-47
2022/08/25 10:05:37;;;;;;;5.05;2.58;;;35.40;48.20;;;;;;5072240;28;20591;-45
2022/08/25 10:08:24;;;;;;;7.45;2.15;;;35.40;47.80;;;;;;5049136;28;20076;-48
2022/08/25 10:10:56;;;;;;;3.97;3.10;;;35.50;47.30;;;;;;5092868;27;20115;-47
2022/08/25 10:13:37;;;;;;;6.70;3.05;;;35.10;47.60;;;;;;5080924;27;20078;-50
2022/08/25 10:16:23;;;;;;;5.22;2.83;;;35.00;47.50;;;;;;5076589;28;20392;-47
2022/08/25 10:19:05;;;;;;;6.88;2.55;;;35.00;47.90;;;;;;5102695;27;20044;-45
2022/08/25 10:21:32;;;;;;;12.43;11.18;;;34.90;47.20;;;;;;5074875;28;20133;-46
2022/08/25 10:24:01;;;;;;;5.10;2.95;;;35.30;47.80;;;;;;5073920;28;20139;-49
2022/08/25 10:26:40;;;;;;;3.25;2.15;;;35.70;47.50;;;;;;5105859;27;20559;-47
2022/08/25 10:29:19;;;;;;;5.07;2.25;;;35.50;46.50;;;;;;5101067;27;20036;-47
2022/08/25 10:31:56;;;;;;;6.32;2.50;;;35.30;45.10;;;;;;5072235;28;20483;-47
2022/08/25 10:34:28;;;;;;;9.02;2.80;;;35.80;46.20;;;;;;5102821;27;20487;-50
2022/08/25 10:37:25;;;;;;;5.00;2.28;;;35.60;44.30;;;;;;5071430;28;20422;-46
2022/08/25 10:40:19;;;;;;;4.25;2.47;;;35.50;44.70;;;;;;5066483;28;20048;-47
2022/08/25 10:43:01;;;;;;;7.63;3.47;;;35.80;46.20;;;;;;5070755;28;20044;-50
2022/08/25 10:45:43;;;;;;;5.35;2.50;;;35.90;43.90;;;;;;5068799;28;20603;-50
2022/08/25 10:48:31;;;;;;;3.88;2.72;;;36.50;44.00;;;;;;5072778;28;20399;-48
2022/08/25 10:51:09;;;;;;;7.93;3.25;;;35.80;44.40;;;;;;5063249;28;20075;-49
2022/08/25 10:53:57;;;;;;;12.88;8.02;;;36.30;44.60;;;;;;5068175;28;20118;-58
2022/08/25 10:56:40;;;;;;;9.02;5.45;;;36.70;44.50;;;;;;5049762;28;20062;-59
2022/08/25 10:59:38;;;;;;;4.78;2.88;;;36.80;43.30;;;;;;5105838;27;20585;-60
2022/08/25 11:02:23;;;;;;;8.43;3.85;;;36.60;43.40;;;;;;5068655;28;20426;-59
2022/08/25 11:05:05;;;;;;;5.03;4.20;;;36.50;42.60;;;;;;5066299;28;20052;-59
2022/08/25 11:07:48;;;;;;;6.03;2.40;;;36.30;42.30;;;;;;5071692;28;20079;-59
2022/08/25 11:10:19;;;;;;;5.30;4.50;;;36.40;41.90;;;;;;5069347;28;20067;-58
2022/08/25 11:12:51;;;;;;;4.70;2.60;;;36.70;43.60;;;;;;5069291;28;20063;-58
2022/08/25 11:15:29;;;;;;;8.20;6.00;;;37.10;42.80;;;;;;5061075;28;20083;-58
2022/08/25 11:17:57;;;;;;;5.80;2.92;;;37.00;41.50;;;;;;5054912;28;20704;-48
2022/08/25 11:20:32;;;;;;;4.07;3.30;;;37.00;40.90;;;;;;5098926;27;20097;-44
2022/08/25 11:23:01;;;;;;;6.85;3.75;;;36.80;41.50;;;;;;5052600;28;20451;-44
2022/08/25 11:25:39;;;;;;;7.28;2.92;;;36.60;41.60;;;;;;5068836;28;20043;-45
2022/08/25 11:28:29;;;;;;;4.68;2.30;;;36.60;41.90;;;;;;5071347;28;20044;-46
2022/08/25 11:30:57;;;;;;;6.13;3.23;;;36.50;42.80;;;;;;5066244;28;20051;-50
2022/08/25 11:33:26;;;;;;;6.97;2.88;;;36.80;42.80;;;;;;5082307;27;20309;-43
2022/08/25 11:35:57;;;;;;;4.13;2.60;;;36.40;42.50;;;;;;5098128;27;20079;-45
2022/08/25 11:38:36;;;;;;;7.43;3.00;;;36.70;43.00;;;;;;5086541;27;20040;-59
2022/08/25 11:41:20;;;;;;;5.25;2.47;;;36.90;43.00;;;;;;5069331;28;20408;-57
2022/08/25 11:43:58;;;;;;;7.03;2.83;;;37.10;42.90;;;;;;5065315;28;20097;-59
2022/08/25 11:46:33;;;;;;;4.50;2.58;;;36.80;42.10;;;;;;5083546;27;20040;-58
2022/08/25 11:49:11;;;;;;;5.38;2.80;;;37.00;43.20;;;;;;5038534;28;20048;-58
2022/08/25 11:51:43;;;;;;;5.30;3.08;;;37.40;42.10;;;;;;5061767;28;20529;-57
2022/08/25 11:54:41;;;;;;;3.55;2.25;;;37.10;41.60;;;;;;5073928;28;20088;-58
2022/08/25 11:57:09;;;;;;;4.55;2.58;;;37.00;40.50;;;;;;5070278;28;20044;-56
2022/08/25 12:00:00;;;;;;;5.93;1.73;;;37.00;40.00;;;;;;5072516;28;20842;-43
2022/08/25 12:02:33;;;;;;;4.72;3.75;;;36.70;38.20;;;;;;5071286;28;20152;-44
2022/08/25 12:05:00;;;;;;;4.75;2.20;;;37.00;39.30;;;;;;5072744;28;20059;-50
2022/08/25 12:07:46;;;;;;;5.22;2.10;;;36.60;39.00;;;;;;5100012;27;20056;-44
2022/08/25 12:10:15;;;;;;;4.20;2.05;;;36.90;40.10;;;;;;5074366;28;20104;-47
2022/08/25 12:12:42;;;;;;;3.70;1.52;;;37.00;39.20;;;;;;5068291;28;20075;-48
2022/08/25 12:15:20;;;;;;;3.72;1.88;;;37.10;39.00;;;;;;5080445;27;20413;-58
2022/08/25 12:18:06;;;;;;;5.35;1.98;;;37.30;38.90;;;;;;5071417;28;20498;-57
2022/08/25 12:20:51;;;;;;;3.30;1.77;;;37.30;39.70;;;;;;5069646;28;20044;-57
2022/08/25 12:23:41;;;;;;;2.70;1.38;;;37.00;37.80;;;;;;5101136;27;20641;-58
2022/08/25 12:26:08;;;;;;;;;;;36.50;37.10;;;;;;5111857;27;20083;-48
2022/08/25 12:29:09;;;;;;;5.75;1.83;;;36.70;37.40;;;;;;5091090;27;19932;-45
2022/08/25 12:31:38;;;;;;;4.88;2.13;;;36.30;37.70;;;;;;5076349;28;20507;-48
2022/08/25 12:34:25;;;;;;;2.30;1.90;;;36.50;37.80;;;;;;5076385;28;20326;-47
2022/08/25 12:37:26;;;;;;;7.47;5.80;;;36.70;37.40;;;;;;5067841;28;20504;-49
2022/08/25 12:40:01;;;;;;;4.68;2.00;;;36.90;37.70;;;;;;5075487;28;20043;-46
2022/08/25 12:42:37;;;;;;;4.50;2.00;;;37.50;38.50;;;;;;5068872;28;20052;-46
2022/08/25 12:45:24;;;;;;;6.80;2.08;;;37.80;39.30;;;;;;5071529;28;20547;-46
2022/08/25 12:47:53;;;;;;;5.50;2.72;;;37.80;37.50;;;;;;5091266;27;20059;-47
2022/08/25 12:50:34;;;;;;;2.53;1.50;;;37.70;36.50;;;;;;5064667;28;20035;-49
2022/08/25 12:53:08;;;;;;;3.55;2.00;;;37.90;36.80;;;;;;5066517;28;20044;-46
2022/08/25 12:55:36;;;;;;;5.40;3.30;;;37.70;36.50;;;;;;5054236;28;20089;-49
2022/08/25 12:58:04;;;;;;;4.15;2.55;;;37.80;37.00;;;;;;5107534;27;20051;-49
2022/08/25 13:00:54;;;;;;;4.38;1.80;;;37.80;36.90;;;;;;5071305;28;20055;-47
2022/08/25 13:03:21;;;;;;;5.70;2.92;;;37.80;36.90;;;;;;5070170;28;20056;-48
2022/08/25 13:06:31;;;;;;;5.68;2.10;;;37.60;36.90;;;;;;5106889;27;20051;-48
2022/08/25 13:09:20;;;;;;;12.00;3.42;;;37.80;37.20;;;;;;5069700;28;20055;-45
2022/08/25 13:12:17;;;;;;;6.07;2.15;;;37.80;38.10;;;;;;5076387;28;20051;-47
2022/08/25 13:14:51;;;;;;;4.65;2.55;;;38.40;37.80;;;;;;5096794;28;20041;-55